Time,TemperatureF,DewpointF,PressureIn,WindDirection,WindDirectionDegrees,WindSpeedMPH,WindSpeedGustMPH,Humidity,HourlyPrecipIn,Conditions,Clouds,dailyrainin,SolarRadiationWatts/m^2,SoftwareType,DateUTC
2013-09-03 00:02:00,64.0,52.0,-100.00,North,1,9.0,11.0,64,0.00,,,0.00,3.000000,,2013-09-03 07:02:00,
2013-09-03 00:12:00,64.0,52.0,-100.00,North,1,9.0,11.0,64,0.00,,,0.00,3.000000,,2013-09-03 07:12:00,
2013-09-03 00:42:00,64.0,53.0,-100.00,North,1,7.0,11.0,67,0.00,,,0.00,3.000000,,2013-09-03 07:42:00,
2013-09-03 00:52:00,64.0,53.0,-100.00,North,1,7.0,11.0,67,0.00,,,0.00,3.000000,,2013-09-03 07:52:00,
2013-09-03 01:03:00,64.0,53.0,-100.00,North,1,7.0,11.0,67,0.00,,,0.00,3.000000,,2013-09-03 08:03:00,
2013-09-03 01:11:00,64.0,53.0,-100.00,North,1,7.0,11.0,67,0.00,,,0.00,3.000000,,2013-09-03 08:11:00,
2013-09-03 01:42:00,64.0,55.0,-100.00,North,1,6.0,9.0,73,0.00,,,0.00,3.000000,,2013-09-03 08:42:00,
2013-09-03 01:52:00,64.0,55.0,-100.00,North,1,6.0,9.0,73,0.00,,,0.00,3.000000,,2013-09-03 08:52:00,
2013-09-03 02:01:00,64.0,55.0,-100.00,North,1,6.0,9.0,73,0.00,,,0.00,3.000000,,2013-09-03 09:01:00,
2013-09-03 02:11:00,64.0,55.0,-100.00,North,1,6.0,9.0,73,0.00,,,0.00,3.000000,,2013-09-03 09:11:00,
2013-09-03 02:43:00,64.0,54.0,-100.00,North,1,6.0,9.0,71,0.00,,,0.00,3.000000,,2013-09-03 09:43:00,
2013-09-03 02:53:00,64.0,54.0,-100.00,North,1,6.0,9.0,71,0.00,,,0.00,3.000000,,2013-09-03 09:53:00,
2013-09-03 03:03:00,64.0,54.0,-100.00,North,1,6.0,9.0,71,0.00,,,0.00,3.000000,,2013-09-03 10:03:00,
2013-09-03 03:12:00,64.0,54.0,-100.00,North,1,6.0,9.0,71,0.00,,,0.00,3.000000,,2013-09-03 10:12:00,
2013-09-03 03:42:00,63.0,54.0,-100.00,North,1,5.0,8.0,72,0.00,,,0.00,3.000000,,2013-09-03 10:42:00,
2013-09-03 03:53:00,63.0,54.0,-100.00,North,1,5.0,8.0,72,0.00,,,0.00,3.000000,,2013-09-03 10:53:00,
2013-09-03 04:02:00,63.0,54.0,-100.00,North,1,5.0,8.0,72,0.00,,,0.00,3.000000,,2013-09-03 11:02:00,
2013-09-03 04:12:00,63.0,54.0,-100.00,North,1,5.0,8.0,72,0.00,,,0.00,3.000000,,2013-09-03 11:12:00,
2013-09-03 04:43:00,62.0,54.0,-100.00,North,1,4.0,6.0,74,0.00,,,0.00,3.000000,,2013-09-03 11:43:00,
2013-09-03 04:52:00,62.0,54.0,-100.00,North,1,4.0,6.0,74,0.00,,,0.00,3.000000,,2013-09-03 11:52:00,
2013-09-03 05:02:00,62.0,54.0,-100.00,North,1,4.0,6.0,74,0.00,,,0.00,3.000000,,2013-09-03 12:02:00,
2013-09-03 05:12:00,62.0,54.0,-100.00,North,1,4.0,6.0,74,0.00,,,0.00,3.000000,,2013-09-03 12:12:00,
2013-09-03 05:42:00,62.0,51.0,-100.00,North,1,5.0,6.0,67,0.00,,,0.00,3.000000,,2013-09-03 12:42:00,
2013-09-03 05:52:00,62.0,51.0,-100.00,North,1,5.0,6.0,67,0.00,,,0.00,3.000000,,2013-09-03 12:52:00,
2013-09-03 06:02:00,62.0,51.0,-100.00,North,1,5.0,6.0,67,0.00,,,0.00,3.000000,,2013-09-03 13:02:00,
2013-09-03 06:11:00,62.0,51.0,-100.00,North,1,5.0,6.0,67,0.00,,,0.00,3.000000,,2013-09-03 13:11:00,
2013-09-03 06:42:00,62.0,49.0,-100.00,North,1,4.0,7.0,62,0.00,,,0.00,3.000000,,2013-09-03 13:42:00,
2013-09-03 06:52:00,62.0,49.0,-100.00,North,1,4.0,7.0,62,0.00,,,0.00,3.000000,,2013-09-03 13:52:00,
2013-09-03 07:01:00,62.0,49.0,-100.00,North,1,4.0,7.0,62,0.00,,,0.00,3.000000,,2013-09-03 14:01:00,
2013-09-03 07:11:00,62.0,49.0,-100.00,North,1,4.0,7.0,62,0.00,,,0.00,3.000000,,2013-09-03 14:11:00,
2013-09-03 07:42:00,65.0,51.0,-100.00,North,1,6.0,8.0,60,0.00,,,0.00,33.000000,,2013-09-03 14:42:00,
2013-09-03 07:52:00,65.0,51.0,-100.00,North,1,6.0,8.0,60,0.00,,,0.00,33.000000,,2013-09-03 14:52:00,
2013-09-03 08:02:00,65.0,51.0,-100.00,North,1,6.0,8.0,60,0.00,,,0.00,33.000000,,2013-09-03 15:02:00,
2013-09-03 08:43:00,68.0,53.0,-100.00,North,1,7.0,9.0,58,0.00,,,0.00,242.000000,,2013-09-03 15:43:00,
2013-09-03 08:54:00,68.0,53.0,-100.00,North,1,7.0,9.0,58,0.00,,,0.00,242.000000,,2013-09-03 15:54:00,
2013-09-03 09:04:00,68.0,53.0,-100.00,North,1,7.0,9.0,58,0.00,,,0.00,242.000000,,2013-09-03 16:04:00,
2013-09-03 09:14:00,68.0,53.0,-100.00,North,1,7.0,9.0,58,0.00,,,0.00,242.000000,,2013-09-03 16:14:00,
2013-09-03 09:43:00,70.0,52.0,-100.00,North,0,7.0,11.0,53,0.00,,,0.00,325.000000,,2013-09-03 16:43:00,
2013-09-03 09:54:00,70.0,52.0,-100.00,North,0,7.0,11.0,53,0.00,,,0.00,325.000000,,2013-09-03 16:54:00,
2013-09-03 10:03:00,70.0,52.0,-100.00,North,0,7.0,11.0,53,0.00,,,0.00,325.000000,,2013-09-03 17:03:00,
2013-09-03 10:12:00,70.0,52.0,-100.00,North,0,7.0,11.0,53,0.00,,,0.00,325.000000,,2013-09-03 17:12:00,
2013-09-03 10:43:00,74.0,53.0,-100.00,North,0,9.0,14.0,48,0.00,,,-99.99,731.000000,,2013-09-03 17:43:00,
2013-09-03 10:52:00,74.0,53.0,-100.00,North,0,9.0,14.0,48,0.00,,,-99.99,731.000000,,2013-09-03 17:52:00,
2013-09-03 11:02:00,74.0,53.0,-100.00,North,0,9.0,14.0,48,0.00,,,-99.99,731.000000,,2013-09-03 18:02:00,
2013-09-03 11:12:00,74.0,53.0,-100.00,North,0,9.0,14.0,48,0.00,,,-99.99,731.000000,,2013-09-03 18:12:00,
2013-09-03 11:43:00,75.0,53.0,-100.00,North,0,8.0,14.0,47,0.00,,,0.00,871.000000,,2013-09-03 18:43:00,
2013-09-03 11:52:00,75.0,53.0,-100.00,North,0,8.0,14.0,47,0.00,,,0.00,871.000000,,2013-09-03 18:52:00,
2013-09-03 12:02:00,75.0,53.0,-100.00,North,0,8.0,14.0,47,0.00,,,0.00,871.000000,,2013-09-03 19:02:00,
2013-09-03 12:11:00,75.0,53.0,-100.00,North,0,8.0,14.0,47,0.00,,,0.00,871.000000,,2013-09-03 19:11:00,
2013-09-03 12:42:00,77.0,53.0,-100.00,North,0,10.0,17.0,43,0.00,,,0.00,1002.000000,,2013-09-03 19:42:00,
2013-09-03 12:52:00,77.0,53.0,-100.00,North,0,10.0,17.0,43,0.00,,,0.00,1002.000000,,2013-09-03 19:52:00,
2013-09-03 13:02:00,77.0,53.0,-100.00,North,0,10.0,17.0,43,0.00,,,0.00,1002.000000,,2013-09-03 20:02:00,
2013-09-03 13:11:00,77.0,53.0,-100.00,North,0,10.0,17.0,43,0.00,,,0.00,1002.000000,,2013-09-03 20:11:00,
2013-09-03 13:42:00,76.0,51.0,-100.00,North,0,11.0,22.0,41,0.00,,,0.00,1023.000000,,2013-09-03 20:42:00,
2013-09-03 13:52:00,76.0,51.0,-100.00,North,0,11.0,22.0,41,0.00,,,0.00,1023.000000,,2013-09-03 20:52:00,
2013-09-03 14:01:00,76.0,51.0,-100.00,North,0,11.0,22.0,41,0.00,,,0.00,1023.000000,,2013-09-03 21:01:00,
2013-09-03 14:12:00,76.0,51.0,-100.00,North,0,11.0,22.0,41,0.00,,,0.00,1023.000000,,2013-09-03 21:12:00,
2013-09-03 14:44:00,77.0,52.0,-100.00,North,0,12.0,17.0,42,0.00,,,0.00,997.000000,,2013-09-03 21:44:00,
2013-09-03 14:54:00,77.0,52.0,-100.00,North,0,12.0,17.0,42,0.00,,,0.00,997.000000,,2013-09-03 21:54:00,
2013-09-03 15:04:00,77.0,52.0,-100.00,North,0,12.0,17.0,42,0.00,,,0.00,997.000000,,2013-09-03 22:04:00,
2013-09-03 15:13:00,77.0,52.0,-100.00,North,0,12.0,17.0,42,0.00,,,0.00,997.000000,,2013-09-03 22:13:00,
2013-09-03 15:43:00,76.0,52.0,-100.00,North,0,11.0,19.0,43,0.00,,,0.00,909.000000,,2013-09-03 22:43:00,
2013-09-03 15:52:00,76.0,52.0,-100.00,North,0,11.0,19.0,43,0.00,,,0.00,909.000000,,2013-09-03 22:52:00,
2013-09-03 16:04:00,76.0,52.0,-100.00,North,0,11.0,19.0,43,0.00,,,0.00,909.000000,,2013-09-03 23:04:00,
2013-09-03 16:12:00,76.0,52.0,-100.00,North,0,11.0,19.0,43,0.00,,,0.00,909.000000,,2013-09-03 23:12:00,
2013-09-03 16:42:00,75.0,52.0,-100.00,North,0,11.0,20.0,44,0.00,,,0.00,756.000000,,2013-09-03 23:42:00,
2013-09-03 16:53:00,75.0,52.0,-100.00,North,0,11.0,20.0,44,0.00,,,0.00,756.000000,,2013-09-03 23:53:00,
2013-09-03 17:02:00,75.0,52.0,-100.00,North,0,11.0,20.0,44,0.00,,,0.00,756.000000,,2013-09-04 00:02:00,
2013-09-03 17:11:00,75.0,52.0,-100.00,North,0,11.0,20.0,44,0.00,,,0.00,756.000000,,2013-09-04 00:11:00,
2013-09-03 17:42:00,73.0,52.0,-100.00,North,0,12.0,21.0,48,0.00,,,0.00,547.000000,,2013-09-04 00:42:00,
2013-09-03 17:52:00,73.0,52.0,-100.00,North,0,12.0,21.0,48,0.00,,,0.00,547.000000,,2013-09-04 00:52:00,
2013-09-03 18:01:00,73.0,52.0,-100.00,North,0,12.0,21.0,48,0.00,,,0.00,547.000000,,2013-09-04 01:01:00,
2013-09-03 18:11:00,73.0,52.0,-100.00,North,0,12.0,21.0,48,0.00,,,0.00,547.000000,,2013-09-04 01:11:00,
2013-09-03 18:42:00,70.0,55.0,-100.00,North,0,10.0,16.0,58,0.00,,,0.00,293.000000,,2013-09-04 01:42:00,
2013-09-03 18:53:00,70.0,55.0,-100.00,North,0,10.0,16.0,58,0.00,,,0.00,293.000000,,2013-09-04 01:53:00,
2013-09-03 19:02:00,70.0,55.0,-100.00,North,0,10.0,16.0,58,0.00,,,0.00,293.000000,,2013-09-04 02:02:00,
2013-09-03 19:11:00,70.0,55.0,-100.00,North,0,10.0,16.0,58,0.00,,,0.00,293.000000,,2013-09-04 02:11:00,
2013-09-03 19:43:00,66.0,53.0,-100.00,North,0,9.0,14.0,64,0.00,,,0.00,55.000000,,2013-09-04 02:43:00,
2013-09-03 19:52:00,66.0,53.0,-100.00,North,0,9.0,14.0,64,0.00,,,0.00,55.000000,,2013-09-04 02:52:00,
2013-09-03 20:03:00,66.0,53.0,-100.00,North,0,9.0,14.0,64,0.00,,,0.00,55.000000,,2013-09-04 03:03:00,
2013-09-03 20:11:00,66.0,53.0,-100.00,North,0,9.0,14.0,64,0.00,,,0.00,55.000000,,2013-09-04 03:11:00,
2013-09-03 20:44:00,64.0,52.0,-100.00,North,1,7.0,13.0,65,0.00,,,0.00,4.000000,,2013-09-04 03:44:00,
2013-09-03 20:54:00,64.0,52.0,-100.00,North,1,7.0,13.0,65,0.00,,,0.00,4.000000,,2013-09-04 03:54:00,
2013-09-03 21:04:00,64.0,52.0,-100.00,North,1,7.0,13.0,65,0.00,,,0.00,4.000000,,2013-09-04 04:04:00,
2013-09-03 21:14:00,64.0,52.0,-100.00,North,1,7.0,13.0,65,0.00,,,0.00,4.000000,,2013-09-04 04:14:00,
2013-09-03 21:44:00,66.0,53.0,-100.00,North,1,7.0,12.0,63,0.00,,,-99.99,3.000000,,2013-09-04 04:44:00,
2013-09-03 21:54:00,66.0,53.0,-100.00,North,1,7.0,12.0,63,0.00,,,-99.99,3.000000,,2013-09-04 04:54:00,
2013-09-03 22:03:00,66.0,53.0,-100.00,North,1,7.0,12.0,63,0.00,,,-99.99,3.000000,,2013-09-04 05:03:00,
2013-09-03 22:12:00,66.0,53.0,-100.00,North,1,7.0,12.0,63,0.00,,,-99.99,3.000000,,2013-09-04 05:12:00,
2013-09-03 22:43:00,65.0,53.0,-100.00,North,1,5.0,10.0,66,0.00,,,0.00,3.000000,,2013-09-04 05:43:00,
2013-09-03 22:53:00,65.0,53.0,-100.00,North,1,5.0,10.0,66,0.00,,,0.00,3.000000,,2013-09-04 05:53:00,
2013-09-03 23:02:00,65.0,53.0,-100.00,North,1,5.0,10.0,66,0.00,,,0.00,3.000000,,2013-09-04 06:02:00,
2013-09-03 23:12:00,65.0,53.0,-100.00,North,1,5.0,10.0,66,0.00,,,0.00,3.000000,,2013-09-04 06:12:00,
2013-09-03 23:42:00,64.0,52.0,-100.00,North,1,4.0,7.0,65,0.00,,,0.00,3.000000,,2013-09-04 06:42:00,
2013-09-03 23:52:00,64.0,52.0,-100.00,North,1,4.0,7.0,65,0.00,,,0.00,3.000000,,2013-09-04 06:52:00,